createdAt,value
2022-08-12T00:00:11.164Z,13.23
2022-08-12T00:03:17.895Z,13.22
2022-08-12T00:06:08.679Z,13.23
2022-08-12T00:08:55.569Z,13.22
2022-08-12T00:11:42.305Z,13.20
2022-08-12T00:14:29.173Z,13.16
2022-08-12T00:17:15.832Z,13.12
2022-08-12T00:20:02.591Z,13.06
2022-08-12T00:22:58.762Z,13.02
2022-08-12T00:26:05.701Z,12.97
2022-08-12T00:28:54.344Z,12.93
2022-08-12T00:31:41.175Z,12.88
2022-08-12T00:34:27.903Z,12.82
2022-08-12T00:37:19.047Z,12.74
2022-08-12T00:40:11.271Z,12.70
2022-08-12T00:42:39.895Z,12.66
2022-08-12T00:45:10.028Z,12.62
2022-08-12T00:47:39.344Z,12.59
2022-08-12T00:50:09.848Z,12.59
2022-08-12T00:52:39.370Z,12.60
2022-08-12T00:55:09.673Z,12.59
2022-08-12T00:57:38.952Z,12.58
2022-08-12T01:00:09.458Z,12.54
2022-08-12T01:02:39.008Z,12.53
2022-08-12T01:05:27.008Z,12.48
2022-08-12T01:08:13.697Z,12.44
2022-08-12T01:11:00.472Z,12.42
2022-08-12T01:13:30.096Z,12.40
2022-08-12T01:15:59.399Z,12.40
2022-08-12T01:18:28.743Z,12.40
2022-08-12T01:20:59.124Z,12.42
2022-08-12T01:23:28.328Z,12.41
2022-08-12T01:25:57.661Z,12.41
2022-08-12T01:28:27.024Z,12.41
2022-08-12T01:30:57.388Z,12.40
2022-08-12T01:33:26.678Z,12.37
2022-08-12T01:35:57.933Z,12.36
2022-08-12T01:38:38.160Z,12.36
2022-08-12T01:41:07.568Z,12.37
2022-08-12T01:43:36.757Z,12.34
2022-08-12T01:46:06.016Z,12.32
2022-08-12T01:48:35.405Z,12.32
2022-08-12T01:51:05.531Z,12.30
2022-08-12T01:53:48.646Z,12.29
2022-08-12T01:56:22.969Z,12.24
2022-08-12T01:59:12.285Z,12.23
2022-08-12T02:01:41.818Z,12.22
2022-08-12T02:04:28.722Z,12.22
2022-08-12T02:07:15.376Z,12.22
2022-08-12T02:10:02.241Z,12.24
2022-08-12T02:12:34.219Z,12.25
2022-08-12T02:15:03.616Z,12.26
2022-08-12T02:17:55.329Z,12.25
2022-08-12T02:20:24.177Z,12.25
2022-08-12T02:23:05.609Z,12.24
2022-08-12T02:25:35.015Z,12.23
2022-08-12T02:28:06.123Z,12.20
2022-08-12T02:30:42.395Z,12.12
2022-08-12T02:33:13.065Z,12.05
2022-08-12T02:35:43.531Z,12.00
2022-08-12T02:38:12.777Z,12.02
2022-08-12T02:40:43.730Z,12.03
2022-08-12T02:43:14.430Z,12.02
2022-08-12T02:45:46.547Z,11.98
2022-08-12T02:48:15.876Z,11.96
2022-08-12T02:50:45.096Z,11.94
2022-08-12T02:53:14.309Z,11.93
2022-08-12T02:55:46.896Z,11.90
2022-08-12T02:58:16.871Z,11.90
2022-08-12T03:00:50.519Z,11.87
2022-08-12T03:03:19.804Z,11.86
2022-08-12T03:05:52.508Z,11.85
2022-08-12T03:08:32.003Z,11.83
2022-08-12T03:11:04.439Z,11.77
2022-08-12T03:13:35.793Z,11.79
2022-08-12T03:16:05.808Z,11.79
2022-08-12T03:18:36.327Z,11.80
2022-08-12T03:21:05.690Z,11.81
2022-08-12T03:23:35.027Z,11.82
2022-08-12T03:26:06.775Z,11.88
2022-08-12T03:28:58.317Z,11.95
2022-08-12T03:31:31.089Z,12.01
2022-08-12T03:34:01.522Z,12.03
2022-08-12T03:36:36.161Z,12.04
2022-08-12T03:39:35.416Z,12.06
2022-08-12T03:42:10.576Z,12.08
2022-08-12T03:44:57.353Z,12.14
2022-08-12T03:47:44.514Z,12.22
2022-08-12T03:50:33.671Z,12.29
2022-08-12T03:53:20.835Z,12.34
2022-08-12T03:56:07.997Z,12.40
2022-08-12T03:58:54.762Z,12.46
2022-08-12T04:01:26.716Z,12.50
2022-08-12T04:03:57.150Z,12.54
2022-08-12T04:06:35.333Z,12.58
2022-08-12T04:09:15.004Z,12.63
2022-08-12T04:12:04.888Z,12.66
2022-08-12T04:14:34.088Z,12.67
2022-08-12T04:17:03.367Z,12.69
2022-08-12T04:19:32.650Z,12.70
2022-08-12T09:24:49.788Z,26.25
2022-08-12T09:28:10.833Z,26.18
2022-08-12T09:38:31.944Z,26.37
2022-08-12T09:45:03.596Z,26.55
2022-08-12T09:48:44.598Z,26.69
2022-08-12T09:54:33.489Z,26.75
2022-08-12T09:58:45.473Z,26.57
2022-08-12T10:00:33.195Z,26.58
2022-08-12T10:03:31.912Z,26.60
2022-08-12T10:09:28.528Z,26.90
2022-08-12T10:13:07.688Z,26.86
2022-08-12T10:16:00.967Z,26.90
2022-08-12T10:18:51.170Z,26.97
2022-08-12T10:21:36.188Z,27.01
2022-08-12T10:24:24.589Z,27.05
2022-08-12T10:27:14.409Z,27.19
2022-08-12T10:30:03.513Z,27.34
2022-08-12T10:32:47.175Z,27.42
2022-08-12T10:35:37.866Z,27.50
2022-08-12T10:38:44.043Z,27.68
2022-08-12T10:46:38.722Z,27.78
2022-08-12T10:55:33.750Z,27.28
2022-08-12T10:58:14.658Z,27.25
2022-08-12T11:01:49.539Z,27.22
2022-08-12T11:07:06.416Z,27.55
2022-08-12T11:09:58.367Z,27.60
2022-08-12T11:23:53.588Z,28.34
2022-08-12T11:27:12.090Z,28.26
2022-08-12T11:30:32.843Z,28.14
2022-08-12T11:55:46.767Z,28.55
2022-08-12T12:01:57.946Z,28.46
2022-08-12T12:09:14.671Z,28.68
2022-08-12T12:15:44.497Z,28.25
2022-08-12T12:26:09.862Z,28.79
2022-08-12T12:30:29.401Z,28.65
2022-08-12T12:32:29.249Z,28.53
2022-08-12T12:36:16.394Z,28.52
2022-08-12T12:38:32.469Z,28.56
2022-08-12T12:44:53.617Z,28.97
2022-08-12T12:48:29.813Z,29.09
2022-08-12T12:55:56.662Z,29.34
2022-08-12T13:22:20.750Z,29.72
2022-08-12T13:30:07.031Z,29.77
2022-08-12T13:33:18.183Z,30.05
2022-08-12T13:39:41.681Z,30.14
2022-08-12T13:42:58.668Z,29.99
2022-08-12T13:45:19.082Z,29.80
2022-08-12T13:48:11.932Z,29.57
2022-08-12T13:57:49.921Z,29.34
2022-08-12T13:58:52.490Z,29.61
2022-08-12T14:01:04.215Z,29.84
2022-08-12T14:03:50.382Z,29.99
2022-08-12T14:06:38.959Z,29.94
2022-08-12T14:09:39.548Z,30.03
2022-08-12T14:12:54.508Z,30.02
2022-08-12T14:38:55.698Z,28.70
2022-08-12T14:51:09.646Z,29.18
2022-08-12T15:00:39.991Z,28.93
2022-08-12T15:03:11.209Z,28.70
2022-08-12T15:06:05.420Z,28.69
2022-08-12T15:08:51.014Z,28.78
2022-08-12T15:12:05.640Z,28.87
2022-08-12T15:14:30.477Z,28.89
2022-08-12T15:17:09.125Z,28.95
2022-08-12T15:20:27.814Z,29.02
2022-08-12T15:23:28.860Z,29.09
2022-08-12T15:26:50.786Z,29.08
2022-08-12T15:40:48.263Z,29.50
2022-08-12T15:43:51.691Z,29.54
2022-08-12T15:46:45.702Z,29.39
2022-08-12T15:59:51.146Z,29.35
2022-08-12T16:04:29.543Z,29.65
2022-08-12T16:10:05.917Z,30.06
2022-08-12T16:13:05.653Z,29.84
2022-08-12T16:20:03.518Z,29.76
2022-08-12T16:50:54.852Z,31.83
2022-08-12T17:04:31.108Z,31.34
2022-08-12T17:07:21.375Z,31.18
2022-08-12T17:10:13.316Z,30.85
2022-08-12T17:13:14.257Z,30.54
2022-08-12T17:16:17.999Z,30.04
2022-08-12T17:20:29.042Z,29.62
2022-08-12T17:26:52.683Z,28.88
2022-08-12T17:28:55.469Z,28.41
2022-08-12T17:57:18.390Z,25.87
2022-08-12T18:04:35.415Z,25.37
2022-08-12T18:07:48.932Z,25.10
2022-08-12T18:11:11.605Z,24.86
2022-08-12T18:14:27.700Z,24.65
2022-08-12T18:28:15.486Z,24.06
2022-08-12T18:34:43.383Z,23.55
2022-08-12T18:46:30.050Z,22.96
2022-08-12T18:46:55.168Z,23.18
2022-08-12T18:54:06.009Z,22.61
2022-08-12T19:00:29.870Z,22.37
2022-08-12T19:08:29.007Z,21.74
2022-08-12T19:18:44.743Z,21.31
2022-08-12T19:36:55.924Z,20.67
2022-08-12T19:47:16.237Z,20.44
2022-08-12T19:50:52.785Z,20.35
2022-08-12T19:54:04.146Z,20.20
2022-08-12T19:58:03.337Z,20.14
2022-08-12T20:01:33.910Z,20.05
2022-08-12T20:04:46.468Z,19.93
2022-08-12T20:38:55.846Z,19.30
2022-08-12T21:02:15.519Z,19.89
2022-08-12T21:05:16.244Z,19.83
2022-08-12T21:11:33.098Z,19.60
2022-08-12T21:14:39.760Z,19.57
2022-08-12T21:18:28.831Z,19.52
2022-08-12T21:47:23.702Z,18.96
